map of IIL home
IIL - Airport
Location
City:  Ilam, Ilam, Iran
ICAO:OICI
IATA:IIL

Details
Type:Airport (Aerodrome, Airfield)
Latitude:3335'12"N (33.586606)
Longitude:4624'17"E (46.404842)
Datum:WGS 1984
Elevation:4404 ft (1342 m)
Variation:4.60E (WMM2015 magnetic declination)
0.06 annual change
Runways:1
Longest:9183 × 148 ft (2799 × 45 m), paved

Time
Time Zone:UTC+3:30 (DST+4:30)
Local Time:

Weather
METAR:OICI 181300Z 21006KT 9999 FEW040CB SCT045 BKN090 25/04 Q1020 A3015
TAF:OICI 181130Z 1812/1918 21005MPS 8000 FEW040CB SCT045 BKN090 PROB40
TEMPO 1814/1816 5000 TSRA
BECMG 1816/1818 FEW040 SCT100
BECMG 1904/1906 FEW035CB SCT040 BKN100
TEMPO 1906/1912 24008MPS 5000 TSRA SCT035CB SCT040 OVC080

Related Locations
Nearby:
Farthest:GMR: 11703 mi / 18833 km
Mangareva [Totegegie], Gambier Islands, PF

Find:

   beyond  
but within

Other Information
Maps:
NOTAMs:
Links:
Sources:

  
  • flag of Iran
  

Sectional Chart

Flight Planning
at skyvector.com

Satellite Image

Google Maps Satellite view

 

Copyright © 2004-2018 Karl L. Swartz. All rights reserved.
The Great Circle Mapper name and logo are trademarks of the Great Circle Mapper.
All other trademarks mentioned herein belong to their respective owners.
Please see credits for attibutions and further copyright information.

  Follow gcmap on Facebook Follow gcmap on Twitter Follow gcmap on Google+ GCmap on LinkedIn

hCard Microformat

Geo Microformat